sensor_id;sensor_type;location;lat;lon;timestamp;P1;durP1;ratioP1;P2;durP2;ratioP2
59366;SDS011;45163;47.690;11.770;2022-12-18T00:01:01;16.00;;;8.57;;
59366;SDS011;45163;47.690;11.770;2022-12-18T00:03:32;15.70;;;8.73;;
59366;SDS011;45163;47.690;11.770;2022-12-18T00:05:59;16.13;;;8.50;;
59366;SDS011;45163;47.690;11.770;2022-12-18T00:08:25;20.33;;;8.53;;
59366;SDS011;45163;47.690;11.770;2022-12-18T00:10:51;15.23;;;7.80;;
59366;SDS011;45163;47.690;11.770;2022-12-18T00:13:17;18.90;;;8.40;;
59366;SDS011;45163;47.690;11.770;2022-12-18T00:15:43;16.50;;;8.30;;
59366;SDS011;45163;47.690;11.770;2022-12-18T00:18:09;16.63;;;8.83;;
59366;SDS011;45163;47.690;11.770;2022-12-18T00:20:38;20.73;;;9.23;;
59366;SDS011;45163;47.690;11.770;2022-12-18T00:23:05;19.13;;;8.73;;
59366;SDS011;45163;47.690;11.770;2022-12-18T00:25:35;17.27;;;8.83;;
59366;SDS011;45163;47.690;11.770;2022-12-18T00:28:02;18.00;;;8.70;;
59366;SDS011;45163;47.690;11.770;2022-12-18T00:30:29;17.87;;;7.97;;
59366;SDS011;45163;47.690;11.770;2022-12-18T00:32:55;16.57;;;8.83;;
59366;SDS011;45163;47.690;11.770;2022-12-18T00:35:22;15.77;;;7.90;;
59366;SDS011;45163;47.690;11.770;2022-12-18T00:37:48;15.87;;;8.13;;
59366;SDS011;45163;47.690;11.770;2022-12-18T00:40:14;13.90;;;6.93;;
59366;SDS011;45163;47.690;11.770;2022-12-18T00:42:40;14.37;;;7.53;;
59366;SDS011;45163;47.690;11.770;2022-12-18T00:45:30;13.93;;;6.73;;
59366;SDS011;45163;47.690;11.770;2022-12-18T00:47:57;14.97;;;7.60;;
59366;SDS011;45163;47.690;11.770;2022-12-18T00:50:23;15.43;;;7.60;;
59366;SDS011;45163;47.690;11.770;2022-12-18T00:52:50;14.87;;;7.30;;
59366;SDS011;45163;47.690;11.770;2022-12-18T00:55:17;14.50;;;7.93;;
59366;SDS011;45163;47.690;11.770;2022-12-18T00:57:43;17.50;;;8.20;;
59366;SDS011;45163;47.690;11.770;2022-12-18T01:00:10;15.63;;;7.33;;
59366;SDS011;45163;47.690;11.770;2022-12-18T01:02:39;14.63;;;7.20;;
59366;SDS011;45163;47.690;11.770;2022-12-18T01:05:06;17.67;;;7.47;;
59366;SDS011;45163;47.690;11.770;2022-12-18T01:07:33;17.17;;;7.47;;
59366;SDS011;45163;47.690;11.770;2022-12-18T01:09:59;15.10;;;7.93;;
59366;SDS011;45163;47.690;11.770;2022-12-18T01:12:25;14.63;;;6.67;;
59366;SDS011;45163;47.690;11.770;2022-12-18T01:14:51;14.73;;;6.97;;
59366;SDS011;45163;47.690;11.770;2022-12-18T01:17:17;14.83;;;8.17;;
59366;SDS011;45163;47.690;11.770;2022-12-18T01:19:43;13.77;;;7.67;;
59366;SDS011;45163;47.690;11.770;2022-12-18T01:22:09;21.47;;;7.83;;
59366;SDS011;45163;47.690;11.770;2022-12-18T01:24:35;15.33;;;7.47;;
59366;SDS011;45163;47.690;11.770;2022-12-18T01:27:01;13.57;;;6.73;;
59366;SDS011;45163;47.690;11.770;2022-12-18T01:29:27;15.53;;;7.00;;
59366;SDS011;45163;47.690;11.770;2022-12-18T01:31:54;13.43;;;6.43;;
59366;SDS011;45163;47.690;11.770;2022-12-18T01:34:21;13.80;;;6.40;;
59366;SDS011;45163;47.690;11.770;2022-12-18T01:36:48;13.60;;;6.90;;
59366;SDS011;45163;47.690;11.770;2022-12-18T01:39:14;15.73;;;7.37;;
59366;SDS011;45163;47.690;11.770;2022-12-18T01:41:41;13.73;;;6.27;;
59366;SDS011;45163;47.690;11.770;2022-12-18T01:50:11;13.47;;;5.97;;
59366;SDS011;45163;47.690;11.770;2022-12-18T01:52:42;13.03;;;5.77;;
59366;SDS011;45163;47.690;11.770;2022-12-18T01:55:12;12.53;;;6.97;;
59366;SDS011;45163;47.690;11.770;2022-12-18T01:57:40;13.87;;;6.23;;
59366;SDS011;45163;47.690;11.770;2022-12-18T02:00:08;14.73;;;6.47;;
59366;SDS011;45163;47.690;11.770;2022-12-18T02:02:45;13.57;;;5.77;;
59366;SDS011;45163;47.690;11.770;2022-12-18T02:05:12;14.87;;;6.53;;
59366;SDS011;45163;47.690;11.770;2022-12-18T02:12:43;13.90;;;6.40;;
59366;SDS011;45163;47.690;11.770;2022-12-18T02:15:17;12.47;;;6.40;;
59366;SDS011;45163;47.690;11.770;2022-12-18T02:18:51;10.27;;;5.43;;
59366;SDS011;45163;47.690;11.770;2022-12-18T02:20:55;25.23;;;10.27;;
59366;SDS011;45163;47.690;11.770;2022-12-18T02:28:59;68.50;;;27.80;;
59366;SDS011;45163;47.690;11.770;2022-12-18T02:31:48;22.97;;;11.40;;
59366;SDS011;45163;47.690;11.770;2022-12-18T02:34:18;21.43;;;9.20;;
59366;SDS011;45163;47.690;11.770;2022-12-18T02:36:47;29.93;;;11.70;;
59366;SDS011;45163;47.690;11.770;2022-12-18T02:39:15;11.17;;;6.03;;
59366;SDS011;45163;47.690;11.770;2022-12-18T02:41:42;13.10;;;6.60;;
59366;SDS011;45163;47.690;11.770;2022-12-18T02:44:12;12.47;;;6.53;;
59366;SDS011;45163;47.690;11.770;2022-12-18T02:46:40;22.77;;;9.63;;
59366;SDS011;45163;47.690;11.770;2022-12-18T03:01:10;12.53;;;6.90;;
59366;SDS011;45163;47.690;11.770;2022-12-18T03:03:56;13.47;;;6.17;;
59366;SDS011;45163;47.690;11.770;2022-12-18T03:06:32;15.60;;;6.83;;
59366;SDS011;45163;47.690;11.770;2022-12-18T03:09:04;17.20;;;8.00;;
59366;SDS011;45163;47.690;11.770;2022-12-18T03:11:36;11.83;;;6.43;;
59366;SDS011;45163;47.690;11.770;2022-12-18T03:14:24;11.80;;;6.50;;
59366;SDS011;45163;47.690;11.770;2022-12-18T03:16:54;14.00;;;5.83;;
59366;SDS011;45163;47.690;11.770;2022-12-18T03:19:25;10.50;;;6.17;;
59366;SDS011;45163;47.690;11.770;2022-12-18T03:21:55;12.33;;;6.03;;
59366;SDS011;45163;47.690;11.770;2022-12-18T03:24:22;13.37;;;6.63;;
59366;SDS011;45163;47.690;11.770;2022-12-18T03:26:54;11.07;;;5.73;;
59366;SDS011;45163;47.690;11.770;2022-12-18T03:32:10;16.47;;;7.07;;
59366;SDS011;45163;47.690;11.770;2022-12-18T03:34:41;14.83;;;6.33;;
59366;SDS011;45163;47.690;11.770;2022-12-18T03:37:09;10.50;;;5.57;;
59366;SDS011;45163;47.690;11.770;2022-12-18T03:39:36;11.57;;;5.90;;
59366;SDS011;45163;47.690;11.770;2022-12-18T03:42:05;13.70;;;6.63;;
59366;SDS011;45163;47.690;11.770;2022-12-18T03:54:53;20.50;;;7.40;;
59366;SDS011;45163;47.690;11.770;2022-12-18T03:57:23;22.63;;;8.47;;
59366;SDS011;45163;47.690;11.770;2022-12-18T03:59:57;20.23;;;8.30;;
59366;SDS011;45163;47.690;11.770;2022-12-18T04:02:27;22.07;;;8.77;;
59366;SDS011;45163;47.690;11.770;2022-12-18T04:04:56;16.23;;;7.60;;
59366;SDS011;45163;47.690;11.770;2022-12-18T04:07:25;18.10;;;7.77;;
59366;SDS011;45163;47.690;11.770;2022-12-18T04:09:53;12.33;;;6.73;;
59366;SDS011;45163;47.690;11.770;2022-12-18T04:12:25;11.60;;;5.77;;
59366;SDS011;45163;47.690;11.770;2022-12-18T04:14:51;18.30;;;8.80;;
59366;SDS011;45163;47.690;11.770;2022-12-18T04:17:17;12.73;;;6.13;;
59366;SDS011;45163;47.690;11.770;2022-12-18T04:19:43;12.33;;;6.50;;
59366;SDS011;45163;47.690;11.770;2022-12-18T04:22:10;11.67;;;6.23;;
59366;SDS011;45163;47.690;11.770;2022-12-18T04:24:36;11.80;;;5.93;;
59366;SDS011;45163;47.690;11.770;2022-12-18T04:27:02;9.13;;;5.10;;
59366;SDS011;45163;47.690;11.770;2022-12-18T04:29:28;12.77;;;6.57;;
59366;SDS011;45163;47.690;11.770;2022-12-18T04:31:54;14.67;;;6.10;;
59366;SDS011;45163;47.690;11.770;2022-12-18T04:34:20;16.30;;;5.87;;
59366;SDS011;45163;47.690;11.770;2022-12-18T04:36:47;9.30;;;5.70;;
59366;SDS011;45163;47.690;11.770;2022-12-18T04:39:13;12.07;;;5.63;;
59366;SDS011;45163;47.690;11.770;2022-12-18T04:41:39;11.47;;;6.30;;
59366;SDS011;45163;47.690;11.770;2022-12-18T04:44:06;13.20;;;6.20;;
59366;SDS011;45163;47.690;11.770;2022-12-18T04:46:32;13.90;;;7.10;;
59366;SDS011;45163;47.690;11.770;2022-12-18T04:48:58;12.10;;;6.70;;
59366;SDS011;45163;47.690;11.770;2022-12-18T04:51:24;11.83;;;6.23;;
59366;SDS011;45163;47.690;11.770;2022-12-18T04:53:50;15.60;;;6.67;;
59366;SDS011;45163;47.690;11.770;2022-12-18T04:56:16;15.90;;;7.07;;
59366;SDS011;45163;47.690;11.770;2022-12-18T04:58:43;14.33;;;6.87;;
59366;SDS011;45163;47.690;11.770;2022-12-18T05:01:10;11.30;;;5.70;;
59366;SDS011;45163;47.690;11.770;2022-12-18T05:03:37;12.43;;;6.13;;
59366;SDS011;45163;47.690;11.770;2022-12-18T05:06:04;10.90;;;5.57;;
59366;SDS011;45163;47.690;11.770;2022-12-18T05:08:31;10.97;;;5.90;;
59366;SDS011;45163;47.690;11.770;2022-12-18T05:11:19;10.70;;;5.90;;
59366;SDS011;45163;47.690;11.770;2022-12-18T05:13:44;13.93;;;6.93;;
59366;SDS011;45163;47.690;11.770;2022-12-18T05:16:11;10.30;;;5.97;;
59366;SDS011;45163;47.690;11.770;2022-12-18T05:18:37;10.20;;;5.63;;
59366;SDS011;45163;47.690;11.770;2022-12-18T05:21:03;10.73;;;5.73;;
59366;SDS011;45163;47.690;11.770;2022-12-18T05:23:30;13.50;;;6.07;;
59366;SDS011;45163;47.690;11.770;2022-12-18T05:25:57;10.47;;;5.80;;
59366;SDS011;45163;47.690;11.770;2022-12-18T05:28:25;11.00;;;6.10;;
59366;SDS011;45163;47.690;11.770;2022-12-18T05:30:53;12.20;;;5.80;;
59366;SDS011;45163;47.690;11.770;2022-12-18T05:33:20;11.57;;;5.73;;
59366;SDS011;45163;47.690;11.770;2022-12-18T05:35:51;10.53;;;5.83;;
59366;SDS011;45163;47.690;11.770;2022-12-18T05:38:18;11.10;;;5.70;;
59366;SDS011;45163;47.690;11.770;2022-12-18T05:40:46;10.47;;;5.97;;
59366;SDS011;45163;47.690;11.770;2022-12-18T05:43:13;10.30;;;5.80;;
59366;SDS011;45163;47.690;11.770;2022-12-18T05:45:39;11.23;;;6.50;;
59366;SDS011;45163;47.690;11.770;2022-12-18T05:48:06;11.40;;;5.90;;
59366;SDS011;45163;47.690;11.770;2022-12-18T05:50:37;11.53;;;5.57;;
59366;SDS011;45163;47.690;11.770;2022-12-18T05:53:04;10.03;;;4.93;;
59366;SDS011;45163;47.690;11.770;2022-12-18T05:55:34;11.83;;;5.70;;
59366;SDS011;45163;47.690;11.770;2022-12-18T05:58:02;12.13;;;5.77;;
59366;SDS011;45163;47.690;11.770;2022-12-18T06:00:29;10.17;;;6.00;;
59366;SDS011;45163;47.690;11.770;2022-12-18T06:02:56;8.13;;;4.77;;
59366;SDS011;45163;47.690;11.770;2022-12-18T06:05:22;9.50;;;5.43;;
59366;SDS011;45163;47.690;11.770;2022-12-18T06:07:48;10.33;;;5.57;;
59366;SDS011;45163;47.690;11.770;2022-12-18T06:10:14;9.73;;;5.50;;
59366;SDS011;45163;47.690;11.770;2022-12-18T06:12:40;10.37;;;5.60;;
59366;SDS011;45163;47.690;11.770;2022-12-18T06:15:06;11.77;;;5.27;;
59366;SDS011;45163;47.690;11.770;2022-12-18T06:17:32;11.90;;;6.27;;
59366;SDS011;45163;47.690;11.770;2022-12-18T06:19:58;9.50;;;5.80;;
59366;SDS011;45163;47.690;11.770;2022-12-18T06:22:24;9.53;;;5.30;;
59366;SDS011;45163;47.690;11.770;2022-12-18T06:24:51;9.87;;;5.23;;
59366;SDS011;45163;47.690;11.770;2022-12-18T06:27:17;8.60;;;4.73;;
59366;SDS011;45163;47.690;11.770;2022-12-18T06:29:43;8.37;;;4.70;;
59366;SDS011;45163;47.690;11.770;2022-12-18T06:32:09;8.67;;;5.50;;
59366;SDS011;45163;47.690;11.770;2022-12-18T06:34:38;10.23;;;4.67;;
59366;SDS011;45163;47.690;11.770;2022-12-18T06:37:04;9.87;;;5.40;;
59366;SDS011;45163;47.690;11.770;2022-12-18T06:39:30;13.57;;;5.40;;
59366;SDS011;45163;47.690;11.770;2022-12-18T06:41:56;8.93;;;5.03;;
59366;SDS011;45163;47.690;11.770;2022-12-18T06:44:22;10.47;;;5.10;;
59366;SDS011;45163;47.690;11.770;2022-12-18T06:46:48;10.30;;;4.83;;
59366;SDS011;45163;47.690;11.770;2022-12-18T06:49:14;7.53;;;4.63;;
59366;SDS011;45163;47.690;11.770;2022-12-18T06:51:41;9.40;;;5.60;;
59366;SDS011;45163;47.690;11.770;2022-12-18T06:54:07;8.50;;;5.20;;
59366;SDS011;45163;47.690;11.770;2022-12-18T06:56:33;11.17;;;5.27;;
59366;SDS011;45163;47.690;11.770;2022-12-18T06:59:00;9.53;;;5.20;;
59366;SDS011;45163;47.690;11.770;2022-12-18T07:01:26;10.50;;;5.20;;
59366;SDS011;45163;47.690;11.770;2022-12-18T07:03:52;9.00;;;4.83;;
59366;SDS011;45163;47.690;11.770;2022-12-18T07:06:21;8.70;;;4.57;;
59366;SDS011;45163;47.690;11.770;2022-12-18T07:08:49;9.10;;;5.00;;
59366;SDS011;45163;47.690;11.770;2022-12-18T07:11:16;8.63;;;5.27;;
59366;SDS011;45163;47.690;11.770;2022-12-18T07:13:43;10.27;;;5.77;;
59366;SDS011;45163;47.690;11.770;2022-12-18T07:16:13;8.03;;;4.90;;
59366;SDS011;45163;47.690;11.770;2022-12-18T07:18:40;10.00;;;5.53;;
59366;SDS011;45163;47.690;11.770;2022-12-18T07:21:07;10.20;;;5.63;;
59366;SDS011;45163;47.690;11.770;2022-12-18T07:23:35;8.13;;;5.17;;
59366;SDS011;45163;47.690;11.770;2022-12-18T07:26:02;11.30;;;6.67;;
59366;SDS011;45163;47.690;11.770;2022-12-18T07:28:34;8.00;;;5.17;;
59366;SDS011;45163;47.690;11.770;2022-12-18T07:31:05;10.50;;;5.30;;
59366;SDS011;45163;47.690;11.770;2022-12-18T07:33:32;13.53;;;6.20;;
59366;SDS011;45163;47.690;11.770;2022-12-18T07:36:02;8.20;;;4.60;;
59366;SDS011;45163;47.690;11.770;2022-12-18T07:38:30;12.37;;;5.57;;
59366;SDS011;45163;47.690;11.770;2022-12-18T07:41:15;10.40;;;5.83;;
59366;SDS011;45163;47.690;11.770;2022-12-18T07:43:41;11.07;;;5.53;;
59366;SDS011;45163;47.690;11.770;2022-12-18T07:46:07;12.40;;;6.50;;
59366;SDS011;45163;47.690;11.770;2022-12-18T07:48:34;19.97;;;8.80;;
59366;SDS011;45163;47.690;11.770;2022-12-18T07:51:00;18.30;;;9.43;;
59366;SDS011;45163;47.690;11.770;2022-12-18T07:53:28;16.13;;;7.50;;
59366;SDS011;45163;47.690;11.770;2022-12-18T07:55:55;15.90;;;8.17;;
59366;SDS011;45163;47.690;11.770;2022-12-18T07:58:31;14.33;;;8.23;;
59366;SDS011;45163;47.690;11.770;2022-12-18T08:01:07;12.67;;;6.63;;
59366;SDS011;45163;47.690;11.770;2022-12-18T08:03:35;11.47;;;6.27;;
59366;SDS011;45163;47.690;11.770;2022-12-18T08:06:05;9.97;;;5.60;;
59366;SDS011;45163;47.690;11.770;2022-12-18T08:08:33;10.73;;;6.40;;
59366;SDS011;45163;47.690;11.770;2022-12-18T08:10:59;10.27;;;5.73;;
59366;SDS011;45163;47.690;11.770;2022-12-18T08:13:26;10.27;;;4.80;;
59366;SDS011;45163;47.690;11.770;2022-12-18T08:15:56;8.07;;;4.70;;
59366;SDS011;45163;47.690;11.770;2022-12-18T08:18:29;7.53;;;4.73;;
59366;SDS011;45163;47.690;11.770;2022-12-18T08:20:55;12.43;;;5.77;;
59366;SDS011;45163;47.690;11.770;2022-12-18T08:23:21;10.07;;;5.80;;
59366;SDS011;45163;47.690;11.770;2022-12-18T08:25:47;15.60;;;7.87;;
59366;SDS011;45163;47.690;11.770;2022-12-18T08:28:13;17.83;;;8.43;;
59366;SDS011;45163;47.690;11.770;2022-12-18T08:30:39;16.73;;;9.40;;
59366;SDS011;45163;47.690;11.770;2022-12-18T08:33:05;13.53;;;8.07;;
59366;SDS011;45163;47.690;11.770;2022-12-18T08:35:34;12.20;;;7.23;;
59366;SDS011;45163;47.690;11.770;2022-12-18T08:38:02;10.60;;;5.67;;
59366;SDS011;45163;47.690;11.770;2022-12-18T08:40:29;9.17;;;5.87;;
59366;SDS011;45163;47.690;11.770;2022-12-18T08:42:55;8.20;;;4.63;;
59366;SDS011;45163;47.690;11.770;2022-12-18T08:45:40;8.77;;;5.10;;
59366;SDS011;45163;47.690;11.770;2022-12-18T08:48:06;10.60;;;5.67;;
59366;SDS011;45163;47.690;11.770;2022-12-18T08:50:31;12.03;;;5.93;;
59366;SDS011;45163;47.690;11.770;2022-12-18T08:52:57;18.47;;;9.60;;
59366;SDS011;45163;47.690;11.770;2022-12-18T08:55:23;15.07;;;9.17;;
59366;SDS011;45163;47.690;11.770;2022-12-18T08:57:50;14.00;;;7.97;;
59366;SDS011;45163;47.690;11.770;2022-12-18T09:00:16;10.23;;;5.60;;
59366;SDS011;45163;47.690;11.770;2022-12-18T09:02:42;11.83;;;6.90;;
59366;SDS011;45163;47.690;11.770;2022-12-18T09:05:08;14.83;;;8.07;;
59366;SDS011;45163;47.690;11.770;2022-12-18T09:07:34;15.37;;;8.83;;
59366;SDS011;45163;47.690;11.770;2022-12-18T09:10:00;18.33;;;10.20;;
59366;SDS011;45163;47.690;11.770;2022-12-18T09:12:26;17.17;;;9.40;;
59366;SDS011;45163;47.690;11.770;2022-12-18T09:14:52;14.13;;;8.53;;
59366;SDS011;45163;47.690;11.770;2022-12-18T09:17:18;12.50;;;7.10;;
59366;SDS011;45163;47.690;11.770;2022-12-18T09:19:44;9.53;;;6.00;;
59366;SDS011;45163;47.690;11.770;2022-12-18T09:22:10;13.57;;;7.90;;
59366;SDS011;45163;47.690;11.770;2022-12-18T09:24:36;11.87;;;7.10;;
59366;SDS011;45163;47.690;11.770;2022-12-18T09:27:02;7.07;;;5.10;;
59366;SDS011;45163;47.690;11.770;2022-12-18T09:29:28;5.10;;;4.00;;
59366;SDS011;45163;47.690;11.770;2022-12-18T09:31:54;5.23;;;4.07;;
59366;SDS011;45163;47.690;11.770;2022-12-18T09:34:20;5.50;;;4.03;;
59366;SDS011;45163;47.690;11.770;2022-12-18T09:36:47;4.90;;;3.83;;
59366;SDS011;45163;47.690;11.770;2022-12-18T09:39:14;5.77;;;4.10;;
59366;SDS011;45163;47.690;11.770;2022-12-18T09:41:44;8.83;;;4.83;;
59366;SDS011;45163;47.690;11.770;2022-12-18T09:46:51;5.83;;;3.90;;
59366;SDS011;45163;47.690;11.770;2022-12-18T09:49:25;6.17;;;4.57;;
59366;SDS011;45163;47.690;11.770;2022-12-18T09:55:26;6.67;;;4.83;;
59366;SDS011;45163;47.690;11.770;2022-12-18T09:57:59;6.27;;;4.97;;
59366;SDS011;45163;47.690;11.770;2022-12-18T10:00:30;6.70;;;5.60;;
59366;SDS011;45163;47.690;11.770;2022-12-18T10:02:59;7.03;;;5.20;;
59366;SDS011;45163;47.690;11.770;2022-12-18T10:08:11;20.13;;;16.10;;
59366;SDS011;45163;47.690;11.770;2022-12-18T10:10:45;14.57;;;11.10;;
59366;SDS011;45163;47.690;11.770;2022-12-18T10:16:25;5.70;;;5.00;;
59366;SDS011;45163;47.690;11.770;2022-12-18T10:19:00;6.87;;;5.20;;
59366;SDS011;45163;47.690;11.770;2022-12-18T10:24:20;4.43;;;4.03;;
59366;SDS011;45163;47.690;11.770;2022-12-18T10:26:59;3.90;;;3.50;;
59366;SDS011;45163;47.690;11.770;2022-12-18T10:29:43;3.63;;;3.33;;
59366;SDS011;45163;47.690;11.770;2022-12-18T10:32:21;3.23;;;2.80;;
59366;SDS011;45163;47.690;11.770;2022-12-18T10:34:52;3.47;;;3.17;;
59366;SDS011;45163;47.690;11.770;2022-12-18T10:37:21;2.57;;;2.37;;
59366;SDS011;45163;47.690;11.770;2022-12-18T10:42:39;2.87;;;2.60;;
59366;SDS011;45163;47.690;11.770;2022-12-18T10:45:11;3.27;;;2.97;;
59366;SDS011;45163;47.690;11.770;2022-12-18T10:47:41;3.73;;;2.87;;
59366;SDS011;45163;47.690;11.770;2022-12-18T10:53:04;5.78;;;4.25;;
59366;SDS011;45163;47.690;11.770;2022-12-18T10:55:34;4.55;;;4.13;;
59366;SDS011;45163;47.690;11.770;2022-12-18T10:58:13;6.35;;;5.07;;
59366;SDS011;45163;47.690;11.770;2022-12-18T11:00:41;9.82;;;8.82;;
59366;SDS011;45163;47.690;11.770;2022-12-18T11:03:41;9.77;;;8.77;;
59366;SDS011;45163;47.690;11.770;2022-12-18T11:06:05;7.68;;;6.53;;
59366;SDS011;45163;47.690;11.770;2022-12-18T11:08:34;7.20;;;5.90;;
59366;SDS011;45163;47.690;11.770;2022-12-18T11:11:00;4.80;;;4.30;;
59366;SDS011;45163;47.690;11.770;2022-12-18T11:13:28;4.15;;;3.75;;
59366;SDS011;45163;47.690;11.770;2022-12-18T11:15:56;4.60;;;4.13;;
59366;SDS011;45163;47.690;11.770;2022-12-18T11:20:54;4.70;;;3.50;;
59366;SDS011;45163;47.690;11.770;2022-12-18T11:23:46;3.92;;;3.60;;
59366;SDS011;45163;47.690;11.770;2022-12-18T11:26:15;3.63;;;3.28;;
59366;SDS011;45163;47.690;11.770;2022-12-18T11:28:43;4.22;;;3.60;;
59366;SDS011;45163;47.690;11.770;2022-12-18T11:33:46;3.25;;;2.90;;
59366;SDS011;45163;47.690;11.770;2022-12-18T11:36:19;3.65;;;2.60;;
59366;SDS011;45163;47.690;11.770;2022-12-18T11:38:48;4.63;;;4.13;;
59366;SDS011;45163;47.690;11.770;2022-12-18T11:41:32;7.25;;;6.55;;
59366;SDS011;45163;47.690;11.770;2022-12-18T11:44:34;4.35;;;3.88;;
59366;SDS011;45163;47.690;11.770;2022-12-18T11:50:01;3.97;;;3.28;;
59366;SDS011;45163;47.690;11.770;2022-12-18T11:52:38;3.53;;;2.80;;
59366;SDS011;45163;47.690;11.770;2022-12-18T12:00:40;2.78;;;2.42;;
59366;SDS011;45163;47.690;11.770;2022-12-18T12:03:24;3.13;;;2.80;;
59366;SDS011;45163;47.690;11.770;2022-12-18T12:20:02;4.20;;;3.80;;
59366;SDS011;45163;47.690;11.770;2022-12-18T12:26:04;2.80;;;2.47;;
59366;SDS011;45163;47.690;11.770;2022-12-18T12:34:31;4.40;;;3.78;;
59366;SDS011;45163;47.690;11.770;2022-12-18T12:39:47;4.05;;;3.65;;
59366;SDS011;45163;47.690;11.770;2022-12-18T12:42:19;3.30;;;3.00;;
59366;SDS011;45163;47.690;11.770;2022-12-18T12:45:55;3.10;;;2.80;;
59366;SDS011;45163;47.690;11.770;2022-12-18T12:51:12;2.73;;;2.30;;
59366;SDS011;45163;47.690;11.770;2022-12-18T12:53:45;3.50;;;3.20;;
59366;SDS011;45163;47.690;11.770;2022-12-18T12:56:12;4.50;;;4.00;;
59366;SDS011;45163;47.690;11.770;2022-12-18T13:04:06;3.20;;;2.83;;
59366;SDS011;45163;47.690;11.770;2022-12-18T13:09:11;3.27;;;2.90;;
59366;SDS011;45163;47.690;11.770;2022-12-18T13:11:39;2.83;;;2.53;;
59366;SDS011;45163;47.690;11.770;2022-12-18T13:19:52;2.70;;;2.43;;
59366;SDS011;45163;47.690;11.770;2022-12-18T13:28:01;15.93;;;6.10;;
59366;SDS011;45163;47.690;11.770;2022-12-18T13:33:34;12.83;;;5.33;;
59366;SDS011;45163;47.690;11.770;2022-12-18T13:35:53;10.37;;;5.03;;
59366;SDS011;45163;47.690;11.770;2022-12-18T13:41:00;5.53;;;3.17;;
59366;SDS011;45163;47.690;11.770;2022-12-18T13:43:48;4.87;;;3.37;;
59366;SDS011;45163;47.690;11.770;2022-12-18T13:49:24;7.83;;;3.40;;
59366;SDS011;45163;47.690;11.770;2022-12-18T13:51:57;5.33;;;3.40;;
59366;SDS011;45163;47.690;11.770;2022-12-18T13:54:33;4.90;;;3.23;;
59366;SDS011;45163;47.690;11.770;2022-12-18T13:57:01;6.13;;;3.90;;
59366;SDS011;45163;47.690;11.770;2022-12-18T13:59:38;6.00;;;3.60;;
59366;SDS011;45163;47.690;11.770;2022-12-18T14:04:46;7.10;;;4.23;;
59366;SDS011;45163;47.690;11.770;2022-12-18T14:07:14;8.10;;;5.43;;
59366;SDS011;45163;47.690;11.770;2022-12-18T14:09:49;5.43;;;4.17;;
59366;SDS011;45163;47.690;11.770;2022-12-18T14:12:18;6.53;;;4.30;;
59366;SDS011;45163;47.690;11.770;2022-12-18T14:15:09;19.77;;;12.37;;
59366;SDS011;45163;47.690;11.770;2022-12-18T14:17:52;20.23;;;11.80;;
59366;SDS011;45163;47.690;11.770;2022-12-18T14:20:21;17.27;;;10.47;;
59366;SDS011;45163;47.690;11.770;2022-12-18T14:22:49;24.57;;;14.53;;
59366;SDS011;45163;47.690;11.770;2022-12-18T14:25:23;25.30;;;15.27;;
59366;SDS011;45163;47.690;11.770;2022-12-18T14:30:34;25.17;;;14.57;;
59366;SDS011;45163;47.690;11.770;2022-12-18T14:35:51;27.57;;;14.93;;
59366;SDS011;45163;47.690;11.770;2022-12-18T14:41:05;30.07;;;16.80;;
59366;SDS011;45163;47.690;11.770;2022-12-18T14:43:36;26.93;;;15.77;;
59366;SDS011;45163;47.690;11.770;2022-12-18T14:48:58;26.87;;;16.53;;
59366;SDS011;45163;47.690;11.770;2022-12-18T14:51:27;28.33;;;15.53;;
59366;SDS011;45163;47.690;11.770;2022-12-18T14:53:56;40.73;;;20.00;;
59366;SDS011;45163;47.690;11.770;2022-12-18T14:56:28;38.00;;;20.30;;
59366;SDS011;45163;47.690;11.770;2022-12-18T14:59:02;35.70;;;17.87;;
59366;SDS011;45163;47.690;11.770;2022-12-18T15:01:45;36.77;;;17.70;;
59366;SDS011;45163;47.690;11.770;2022-12-18T15:04:32;33.13;;;16.20;;
59366;SDS011;45163;47.690;11.770;2022-12-18T15:07:03;30.73;;;13.70;;
59366;SDS011;45163;47.690;11.770;2022-12-18T15:09:38;23.03;;;12.80;;
59366;SDS011;45163;47.690;11.770;2022-12-18T15:12:18;21.03;;;11.80;;
59366;SDS011;45163;47.690;11.770;2022-12-18T15:14:58;21.20;;;11.60;;
59366;SDS011;45163;47.690;11.770;2022-12-18T15:17:24;20.57;;;11.17;;
59366;SDS011;45163;47.690;11.770;2022-12-18T15:19:51;21.03;;;12.47;;
59366;SDS011;45163;47.690;11.770;2022-12-18T15:24:56;17.30;;;10.33;;
59366;SDS011;45163;47.690;11.770;2022-12-18T15:32:33;17.37;;;9.87;;
59366;SDS011;45163;47.690;11.770;2022-12-18T15:35:42;26.37;;;12.17;;
59366;SDS011;45163;47.690;11.770;2022-12-18T15:37:50;21.67;;;11.43;;
59366;SDS011;45163;47.690;11.770;2022-12-18T15:40:18;33.17;;;16.87;;
59366;SDS011;45163;47.690;11.770;2022-12-18T15:42:47;21.00;;;11.40;;
59366;SDS011;45163;47.690;11.770;2022-12-18T15:45:32;7.20;;;4.00;;
59366;SDS011;45163;47.690;11.770;2022-12-18T15:47:59;5.80;;;3.43;;
59366;SDS011;45163;47.690;11.770;2022-12-18T15:50:25;3.77;;;2.60;;
59366;SDS011;45163;47.690;11.770;2022-12-18T15:52:52;4.37;;;2.43;;
59366;SDS011;45163;47.690;11.770;2022-12-18T15:55:22;5.23;;;3.17;;
59366;SDS011;45163;47.690;11.770;2022-12-18T15:58:12;8.43;;;4.67;;
59366;SDS011;45163;47.690;11.770;2022-12-18T16:00:39;4.50;;;2.90;;
59366;SDS011;45163;47.690;11.770;2022-12-18T16:03:05;8.80;;;5.33;;
59366;SDS011;45163;47.690;11.770;2022-12-18T16:05:32;21.03;;;11.27;;
59366;SDS011;45163;47.690;11.770;2022-12-18T16:07:58;18.40;;;9.97;;
59366;SDS011;45163;47.690;11.770;2022-12-18T16:10:24;13.60;;;7.43;;
59366;SDS011;45163;47.690;11.770;2022-12-18T16:12:51;18.20;;;9.40;;
59366;SDS011;45163;47.690;11.770;2022-12-18T16:15:18;10.20;;;5.53;;
59366;SDS011;45163;47.690;11.770;2022-12-18T16:17:44;6.77;;;4.20;;
59366;SDS011;45163;47.690;11.770;2022-12-18T16:20:19;11.37;;;6.20;;
59366;SDS011;45163;47.690;11.770;2022-12-18T16:22:46;20.00;;;11.27;;
59366;SDS011;45163;47.690;11.770;2022-12-18T16:27:50;22.10;;;12.00;;
59366;SDS011;45163;47.690;11.770;2022-12-18T16:30:18;19.20;;;8.80;;
59366;SDS011;45163;47.690;11.770;2022-12-18T16:32:45;15.33;;;8.73;;
59366;SDS011;45163;47.690;11.770;2022-12-18T16:35:12;20.63;;;11.67;;
59366;SDS011;45163;47.690;11.770;2022-12-18T16:37:39;26.33;;;12.97;;
59366;SDS011;45163;47.690;11.770;2022-12-18T16:40:10;32.40;;;13.10;;
59366;SDS011;45163;47.690;11.770;2022-12-18T16:42:38;26.80;;;13.03;;
59366;SDS011;45163;47.690;11.770;2022-12-18T16:45:06;34.50;;;14.37;;
59366;SDS011;45163;47.690;11.770;2022-12-18T16:47:34;34.07;;;15.23;;
59366;SDS011;45163;47.690;11.770;2022-12-18T16:50:00;21.10;;;9.07;;
59366;SDS011;45163;47.690;11.770;2022-12-18T16:52:26;11.30;;;5.17;;
59366;SDS011;45163;47.690;11.770;2022-12-18T16:54:52;11.57;;;6.63;;
59366;SDS011;45163;47.690;11.770;2022-12-18T16:57:18;6.60;;;4.27;;
59366;SDS011;45163;47.690;11.770;2022-12-18T16:59:45;8.27;;;4.63;;
59366;SDS011;45163;47.690;11.770;2022-12-18T17:02:12;9.33;;;6.43;;
59366;SDS011;45163;47.690;11.770;2022-12-18T17:04:40;6.40;;;4.50;;
59366;SDS011;45163;47.690;11.770;2022-12-18T17:07:07;4.93;;;3.53;;
59366;SDS011;45163;47.690;11.770;2022-12-18T17:09:33;4.20;;;2.70;;
59366;SDS011;45163;47.690;11.770;2022-12-18T17:11:59;3.47;;;2.37;;
59366;SDS011;45163;47.690;11.770;2022-12-18T17:14:25;3.30;;;2.40;;